sensor_id;sensor_type;location;lat;lon;timestamp;pressure;altitude;pressure_sealevel;temperature;humidity
54910;BME280;63189;51.240;9.964;2022-09-21T00:00:33;98792.50;;;6.92;97.70
54910;BME280;63189;51.240;9.964;2022-09-21T00:02:58;98805.47;;;6.94;97.00
54910;BME280;63189;51.240;9.964;2022-09-21T00:05:24;98798.56;;;6.87;96.61
54910;BME280;63189;51.240;9.964;2022-09-21T00:07:50;98798.59;;;6.81;96.19
54910;BME280;63189;51.240;9.964;2022-09-21T00:10:16;98795.13;;;6.76;96.69
54910;BME280;63189;51.240;9.964;2022-09-21T00:12:43;98801.19;;;6.73;96.00
54910;BME280;63189;51.240;9.964;2022-09-21T00:15:09;98797.75;;;6.70;95.68
54910;BME280;63189;51.240;9.964;2022-09-21T00:17:36;98792.56;;;6.65;96.15
54910;BME280;63189;51.240;9.964;2022-09-21T00:20:02;98802.91;;;6.65;95.42
54910;BME280;63189;51.240;9.964;2022-09-21T00:22:33;98800.34;;;6.60;95.74
54910;BME280;63189;51.240;9.964;2022-09-21T00:24:59;98805.53;;;6.53;95.61
54910;BME280;63189;51.240;9.964;2022-09-21T00:27:29;98812.44;;;6.49;95.89
54910;BME280;63189;51.240;9.964;2022-09-21T00:29:55;98796.03;;;6.44;96.59
54910;BME280;63189;51.240;9.964;2022-09-21T00:32:21;98805.56;;;6.47;96.35
54910;BME280;63189;51.240;9.964;2022-09-21T00:34:50;98796.91;;;6.43;96.66
54910;BME280;63189;51.240;9.964;2022-09-21T00:37:16;98806.38;;;6.44;97.01
54910;BME280;63189;51.240;9.964;2022-09-21T00:39:41;98802.97;;;6.39;96.72
54910;BME280;63189;51.240;9.964;2022-09-21T00:42:09;98798.66;;;6.38;96.65
54910;BME280;63189;51.240;9.964;2022-09-21T00:44:38;98799.50;;;6.32;97.62
54910;BME280;63189;51.240;9.964;2022-09-21T00:47:08;98799.47;;;6.34;98.47
54910;BME280;63189;51.240;9.964;2022-09-21T00:49:35;98797.75;;;6.33;98.45
54910;BME280;63189;51.240;9.964;2022-09-21T00:52:04;98805.53;;;6.33;98.64
54910;BME280;63189;51.240;9.964;2022-09-21T00:54:36;98797.78;;;6.30;98.46
54910;BME280;63189;51.240;9.964;2022-09-21T00:57:03;98807.28;;;6.28;98.73
54910;BME280;63189;51.240;9.964;2022-09-21T00:59:31;98802.97;;;6.25;99.05
54910;BME280;63189;51.240;9.964;2022-09-21T01:01:58;98809.84;;;6.23;98.58
54910;BME280;63189;51.240;9.964;2022-09-21T01:04:24;98812.44;;;6.22;97.53
54910;BME280;63189;51.240;9.964;2022-09-21T01:06:50;98805.53;;;6.12;96.43
54910;BME280;63189;51.240;9.964;2022-09-21T01:09:17;98792.59;;;6.05;96.45
54910;BME280;63189;51.240;9.964;2022-09-21T01:28:14;98810.66;;;5.87;97.95
54910;BME280;63189;51.240;9.964;2022-09-21T01:30:47;98817.53;;;5.88;99.82
54910;BME280;63189;51.240;9.964;2022-09-21T01:33:22;98814.13;;;5.91;99.96
54910;BME280;63189;51.240;9.964;2022-09-21T01:35:55;98815.84;;;5.93;99.94
54910;BME280;63189;51.240;9.964;2022-09-21T01:38:25;98813.28;;;5.95;99.53
54910;BME280;63189;51.240;9.964;2022-09-21T01:40:57;98821.91;;;5.97;100.00
54910;BME280;63189;51.240;9.964;2022-09-21T01:43:26;98823.63;;;5.99;100.00
54910;BME280;63189;51.240;9.964;2022-09-21T01:45:54;98823.63;;;5.96;99.57
54910;BME280;63189;51.240;9.964;2022-09-21T01:48:23;98819.28;;;5.92;99.12
54910;BME280;63189;51.240;9.964;2022-09-21T01:50:53;98821.03;;;5.90;99.68
54910;BME280;63189;51.240;9.964;2022-09-21T01:56:21;98827.94;;;5.91;99.94
54910;BME280;63189;51.240;9.964;2022-09-21T02:01:17;98822.75;;;5.91;99.76
54910;BME280;63189;51.240;9.964;2022-09-21T02:03:48;98823.63;;;5.92;100.00
54910;BME280;63189;51.240;9.964;2022-09-21T02:06:16;98821.88;;;5.91;100.00
54910;BME280;63189;51.240;9.964;2022-09-21T02:08:43;98825.34;;;5.93;100.00
54910;BME280;63189;51.240;9.964;2022-09-21T02:11:09;98824.47;;;5.92;100.00
54910;BME280;63189;51.240;9.964;2022-09-21T02:13:39;98825.34;;;5.99;100.00
54910;BME280;63189;51.240;9.964;2022-09-21T02:18:52;98829.69;;;6.07;100.00
54910;BME280;63189;51.240;9.964;2022-09-21T02:24:13;98826.22;;;6.12;100.00
54910;BME280;63189;51.240;9.964;2022-09-21T02:26:50;98829.69;;;6.14;100.00
54910;BME280;63189;51.240;9.964;2022-09-21T02:29:29;98825.38;;;6.11;100.00
54910;BME280;63189;51.240;9.964;2022-09-21T02:34:48;98821.94;;;6.18;100.00
54910;BME280;63189;51.240;9.964;2022-09-21T02:37:29;98827.13;;;6.20;100.00
54910;BME280;63189;51.240;9.964;2022-09-21T02:40:09;98827.13;;;6.21;100.00
54910;BME280;63189;51.240;9.964;2022-09-21T02:42:40;98816.75;;;6.17;100.00
54910;BME280;63189;51.240;9.964;2022-09-21T02:50:16;98813.31;;;6.21;100.00
54910;BME280;63189;51.240;9.964;2022-09-21T02:52:44;98827.13;;;6.29;100.00
54910;BME280;63189;51.240;9.964;2022-09-21T02:55:10;98824.53;;;6.29;100.00
54910;BME280;63189;51.240;9.964;2022-09-21T02:57:37;98819.34;;;6.24;100.00
54910;BME280;63189;51.240;9.964;2022-09-21T03:00:04;98819.34;;;6.29;100.00
54910;BME280;63189;51.240;9.964;2022-09-21T03:02:38;98814.16;;;6.23;100.00
54910;BME280;63189;51.240;9.964;2022-09-21T03:05:05;98826.25;;;6.30;100.00
54910;BME280;63189;51.240;9.964;2022-09-21T03:07:31;98819.38;;;6.26;100.00
54910;BME280;63189;51.240;9.964;2022-09-21T03:09:57;98815.03;;;6.23;100.00
54910;BME280;63189;51.240;9.964;2022-09-21T03:12:23;98818.50;;;6.27;100.00
54910;BME280;63189;51.240;9.964;2022-09-21T03:14:48;98819.34;;;6.24;100.00
54910;BME280;63189;51.240;9.964;2022-09-21T03:17:15;98824.53;;;6.29;100.00
54910;BME280;63189;51.240;9.964;2022-09-21T03:19:40;98821.94;;;6.23;100.00
54910;BME280;63189;51.240;9.964;2022-09-21T03:22:06;98829.72;;;6.26;100.00
54910;BME280;63189;51.240;9.964;2022-09-21T03:24:31;98821.09;;;6.16;100.00
54910;BME280;63189;51.240;9.964;2022-09-21T03:27:13;98825.38;;;6.14;100.00
54910;BME280;63189;51.240;9.964;2022-09-21T03:29:39;98827.13;;;6.18;100.00
54910;BME280;63189;51.240;9.964;2022-09-21T03:32:05;98833.16;;;6.19;100.00
54910;BME280;63189;51.240;9.964;2022-09-21T03:34:30;98835.75;;;6.20;100.00
54910;BME280;63189;51.240;9.964;2022-09-21T03:37:01;98829.72;;;6.17;100.00
54910;BME280;63189;51.240;9.964;2022-09-21T03:39:27;98835.75;;;6.19;100.00
54910;BME280;63189;51.240;9.964;2022-09-21T03:41:52;98834.88;;;6.23;100.00
54910;BME280;63189;51.240;9.964;2022-09-21T03:44:22;98837.47;;;6.24;100.00
54910;BME280;63189;51.240;9.964;2022-09-21T03:46:47;98825.38;;;6.23;100.00
54910;BME280;63189;51.240;9.964;2022-09-21T03:49:12;98829.72;;;6.26;100.00
54910;BME280;63189;51.240;9.964;2022-09-21T03:51:38;98834.00;;;6.24;100.00
54910;BME280;63189;51.240;9.964;2022-09-21T03:54:04;98831.44;;;6.18;100.00
54910;BME280;63189;51.240;9.964;2022-09-21T03:56:29;98831.44;;;6.22;100.00
54910;BME280;63189;51.240;9.964;2022-09-21T03:58:55;98830.56;;;6.17;100.00
54910;BME280;63189;51.240;9.964;2022-09-21T04:01:21;98835.75;;;6.16;100.00
54910;BME280;63189;51.240;9.964;2022-09-21T04:03:46;98834.88;;;6.17;100.00
54910;BME280;63189;51.240;9.964;2022-09-21T04:06:12;98840.03;;;6.14;100.00
54910;BME280;63189;51.240;9.964;2022-09-21T04:08:38;98841.78;;;6.13;100.00
54910;BME280;63189;51.240;9.964;2022-09-21T04:11:16;98845.22;;;6.07;100.00
54910;BME280;63189;51.240;9.964;2022-09-21T04:13:42;98848.69;;;6.06;100.00
54910;BME280;63189;51.240;9.964;2022-09-21T04:16:09;98843.47;;;6.03;100.00
54910;BME280;63189;51.240;9.964;2022-09-21T04:18:35;98837.44;;;5.97;100.00
54910;BME280;63189;51.240;9.964;2022-09-21T04:21:02;98851.25;;;5.96;100.00
54910;BME280;63189;51.240;9.964;2022-09-21T04:23:27;98857.25;;;5.93;100.00
54910;BME280;63189;51.240;9.964;2022-09-21T04:25:53;98853.78;;;5.85;100.00
54910;BME280;63189;51.240;9.964;2022-09-21T04:28:20;98840.81;;;5.80;100.00
54910;BME280;63189;51.240;9.964;2022-09-21T04:30:47;98845.13;;;5.83;100.00
54910;BME280;63189;51.240;9.964;2022-09-21T04:33:12;98846.84;;;5.78;100.00
54910;BME280;63189;51.240;9.964;2022-09-21T04:35:38;98846.84;;;5.75;100.00
54910;BME280;63189;51.240;9.964;2022-09-21T04:38:03;98839.06;;;5.72;100.00
54910;BME280;63189;51.240;9.964;2022-09-21T04:40:29;98847.72;;;5.75;100.00
54910;BME280;63189;51.240;9.964;2022-09-21T04:42:55;98846.84;;;5.73;100.00
54910;BME280;63189;51.240;9.964;2022-09-21T04:45:21;98851.13;;;5.73;100.00
54910;BME280;63189;51.240;9.964;2022-09-21T04:47:48;98838.19;;;5.68;100.00
54910;BME280;63189;51.240;9.964;2022-09-21T04:50:14;98845.94;;;5.73;100.00
54910;BME280;63189;51.240;9.964;2022-09-21T04:52:39;98846.81;;;5.72;100.00
54910;BME280;63189;51.240;9.964;2022-09-21T04:55:06;98851.13;;;5.67;100.00
54910;BME280;63189;51.240;9.964;2022-09-21T04:57:32;98855.44;;;5.68;100.00
54910;BME280;63189;51.240;9.964;2022-09-21T04:59:57;98857.16;;;5.67;100.00
54910;BME280;63189;51.240;9.964;2022-09-21T05:02:23;98852.84;;;5.63;100.00
54910;BME280;63189;51.240;9.964;2022-09-21T05:04:48;98846.81;;;5.63;100.00
54910;BME280;63189;51.240;9.964;2022-09-21T05:07:14;98852.00;;;5.63;100.00
54910;BME280;63189;51.240;9.964;2022-09-21T05:09:39;98853.72;;;5.64;100.00
54910;BME280;63189;51.240;9.964;2022-09-21T05:12:23;98865.78;;;5.68;100.00
54910;BME280;63189;51.240;9.964;2022-09-21T05:14:49;98864.94;;;5.67;100.00
54910;BME280;63189;51.240;9.964;2022-09-21T05:17:14;98862.34;;;5.69;100.00
54910;BME280;63189;51.240;9.964;2022-09-21T05:19:39;98868.38;;;5.72;100.00
54910;BME280;63189;51.240;9.964;2022-09-21T05:22:05;98864.06;;;5.70;100.00
54910;BME280;63189;51.240;9.964;2022-09-21T05:24:30;98875.28;;;5.72;100.00
54910;BME280;63189;51.240;9.964;2022-09-21T05:26:55;98868.38;;;5.71;100.00
54910;BME280;63189;51.240;9.964;2022-09-21T05:29:21;98873.56;;;5.71;100.00
54910;BME280;63189;51.240;9.964;2022-09-21T05:34:41;98868.38;;;5.63;100.00
54910;BME280;63189;51.240;9.964;2022-09-21T05:37:42;98882.19;;;5.70;100.00
54910;BME280;63189;51.240;9.964;2022-09-21T05:40:10;98893.38;;;5.72;100.00
54910;BME280;63189;51.240;9.964;2022-09-21T05:42:36;98884.75;;;5.67;100.00
54910;BME280;63189;51.240;9.964;2022-09-21T05:45:02;98885.63;;;5.69;100.00
54910;BME280;63189;51.240;9.964;2022-09-21T05:50:53;98889.06;;;5.68;100.00
54910;BME280;63189;51.240;9.964;2022-09-21T05:56:36;98894.25;;;5.63;100.00
54910;BME280;63189;51.240;9.964;2022-09-21T06:04:30;98897.66;;;5.59;100.00
54910;BME280;63189;51.240;9.964;2022-09-21T06:06:56;98892.47;;;5.55;100.00
54910;BME280;63189;51.240;9.964;2022-09-21T06:09:21;98901.97;;;5.53;100.00
54910;BME280;63189;51.240;9.964;2022-09-21T06:11:46;98905.41;;;5.55;100.00
54910;BME280;63189;51.240;9.964;2022-09-21T06:14:12;98902.81;;;5.56;100.00
54910;BME280;63189;51.240;9.964;2022-09-21T06:16:41;98896.78;;;5.53;100.00
54910;BME280;63189;51.240;9.964;2022-09-21T06:19:11;98902.78;;;5.51;100.00
54910;BME280;63189;51.240;9.964;2022-09-21T06:21:37;98905.38;;;5.48;100.00
54910;BME280;63189;51.240;9.964;2022-09-21T06:24:03;98916.56;;;5.52;100.00
54910;BME280;63189;51.240;9.964;2022-09-21T06:26:29;98914.03;;;5.54;100.00
54910;BME280;63189;51.240;9.964;2022-09-21T06:28:54;98919.22;;;5.58;100.00
54910;BME280;63189;51.240;9.964;2022-09-21T06:31:20;98923.53;;;5.61;100.00
54910;BME280;63189;51.240;9.964;2022-09-21T06:33:45;98914.03;;;5.60;100.00
54910;BME280;63189;51.240;9.964;2022-09-21T06:36:10;98919.22;;;5.61;100.00
54910;BME280;63189;51.240;9.964;2022-09-21T06:38:35;98925.28;;;5.65;100.00
54910;BME280;63189;51.240;9.964;2022-09-21T06:41:02;98923.56;;;5.67;100.00
54910;BME280;63189;51.240;9.964;2022-09-21T06:43:28;98916.66;;;5.67;100.00
54910;BME280;63189;51.240;9.964;2022-09-21T06:45:55;98919.25;;;5.72;100.00
54910;BME280;63189;51.240;9.964;2022-09-21T06:48:21;98918.44;;;5.79;100.00
54910;BME280;63189;51.240;9.964;2022-09-21T06:50:46;98927.94;;;5.82;100.00
54910;BME280;63189;51.240;9.964;2022-09-21T06:53:12;98926.25;;;5.84;100.00
54910;BME280;63189;51.240;9.964;2022-09-21T06:55:38;98920.19;;;5.86;100.00
54910;BME280;63189;51.240;9.964;2022-09-21T06:58:04;98913.34;;;5.93;100.00
54910;BME280;63189;51.240;9.964;2022-09-21T07:00:30;98922.00;;;6.04;100.00
54910;BME280;63189;51.240;9.964;2022-09-21T07:02:55;98914.25;;;6.08;100.00
54910;BME280;63189;51.240;9.964;2022-09-21T07:05:21;98916.88;;;6.18;100.00
54910;BME280;63189;51.240;9.964;2022-09-21T07:07:46;98927.25;;;6.25;100.00
54910;BME280;63189;51.240;9.964;2022-09-21T07:10:11;98928.13;;;6.32;100.00
54910;BME280;63189;51.240;9.964;2022-09-21T07:12:36;98922.09;;;6.36;100.00
54910;BME280;63189;51.240;9.964;2022-09-21T07:15:03;98932.50;;;6.47;100.00
54910;BME280;63189;51.240;9.964;2022-09-21T07:17:33;98926.44;;;6.48;100.00
54910;BME280;63189;51.240;9.964;2022-09-21T07:20:00;98937.66;;;6.54;99.87
54910;BME280;63189;51.240;9.964;2022-09-21T07:22:28;98935.09;;;6.57;99.62
54910;BME280;63189;51.240;9.964;2022-09-21T07:24:54;98936.81;;;6.61;99.43
54910;BME280;63189;51.240;9.964;2022-09-21T07:27:19;98942.00;;;6.68;99.68
54910;BME280;63189;51.240;9.964;2022-09-21T07:29:44;98929.06;;;6.57;98.72
54910;BME280;63189;51.240;9.964;2022-09-21T07:32:11;98942.00;;;6.68;99.51
54910;BME280;63189;51.240;9.964;2022-09-21T07:34:36;98949.78;;;6.69;99.32
54910;BME280;63189;51.240;9.964;2022-09-21T07:37:02;98939.41;;;6.72;99.45
54910;BME280;63189;51.240;9.964;2022-09-21T07:39:27;98937.69;;;6.79;100.00
54910;BME280;63189;51.240;9.964;2022-09-21T07:41:53;98946.31;;;6.82;100.00
54910;BME280;63189;51.240;9.964;2022-09-21T07:44:19;98938.56;;;6.93;100.00
54910;BME280;63189;51.240;9.964;2022-09-21T07:46:49;98934.22;;;6.97;100.00
54910;BME280;63189;51.240;9.964;2022-09-21T07:49:15;98943.72;;;7.05;100.00
54910;BME280;63189;51.240;9.964;2022-09-21T07:51:40;98924.72;;;7.03;100.00
54910;BME280;63189;51.240;9.964;2022-09-21T07:54:08;98942.00;;;7.13;100.00
54910;BME280;63189;51.240;9.964;2022-09-21T07:56:35;98932.50;;;7.14;100.00
54910;BME280;63189;51.240;9.964;2022-09-21T07:59:01;98945.47;;;7.21;100.00
54910;BME280;63189;51.240;9.964;2022-09-21T08:01:33;98948.03;;;7.26;100.00
54910;BME280;63189;51.240;9.964;2022-09-21T08:03:59;98935.94;;;7.25;100.00
54910;BME280;63189;51.240;9.964;2022-09-21T08:06:27;98941.09;;;7.36;100.00
54910;BME280;63189;51.240;9.964;2022-09-21T08:08:54;98944.56;;;7.41;100.00
54910;BME280;63189;51.240;9.964;2022-09-21T08:11:21;98954.91;;;7.48;100.00
54910;BME280;63189;51.240;9.964;2022-09-21T08:13:54;98936.72;;;7.59;99.91
54910;BME280;63189;51.240;9.964;2022-09-21T08:16:20;98950.56;;;7.64;99.18
54910;BME280;63189;51.240;9.964;2022-09-21T08:18:45;98942.75;;;7.73;99.71
54910;BME280;63189;51.240;9.964;2022-09-21T08:21:11;98953.09;;;7.84;99.54
54910;BME280;63189;51.240;9.964;2022-09-21T08:23:37;98947.00;;;7.87;99.77
54910;BME280;63189;51.240;9.964;2022-09-21T08:26:11;98956.53;;;7.92;100.00
54910;BME280;63189;51.240;9.964;2022-09-21T08:28:47;98958.22;;;8.02;100.00
54910;BME280;63189;51.240;9.964;2022-09-21T08:31:15;98946.91;;;8.09;100.00
54910;BME280;63189;51.240;9.964;2022-09-21T08:33:41;98956.34;;;8.27;100.00
54910;BME280;63189;51.240;9.964;2022-09-21T08:36:07;98945.09;;;8.34;99.88
54910;BME280;63189;51.240;9.964;2022-09-21T08:38:34;98950.22;;;8.48;99.90
54910;BME280;63189;51.240;9.964;2022-09-21T08:41:02;98962.22;;;8.63;99.75
54910;BME280;63189;51.240;9.964;2022-09-21T08:43:44;98956.94;;;8.78;98.67
54910;BME280;63189;51.240;9.964;2022-09-21T08:46:16;98959.53;;;8.78;98.00
54910;BME280;63189;51.240;9.964;2022-09-21T08:48:47;98952.53;;;8.89;98.79
54910;BME280;63189;51.240;9.964;2022-09-21T08:51:19;98954.97;;;9.05;98.58
54910;BME280;63189;51.240;9.964;2022-09-21T08:53:48;98956.78;;;9.00;96.69
54910;BME280;63189;51.240;9.964;2022-09-21T08:56:16;98956.66;;;9.12;98.42
54910;BME280;63189;51.240;9.964;2022-09-21T08:58:41;98947.97;;;9.17;98.02
54910;BME280;63189;51.240;9.964;2022-09-21T09:03:51;98954.75;;;9.32;96.46
54910;BME280;63189;51.240;9.964;2022-09-21T09:06:53;98958.88;;;9.53;95.79
54910;BME280;63189;51.240;9.964;2022-09-21T09:09:53;98960.56;;;9.57;94.18
54910;BME280;63189;51.240;9.964;2022-09-21T09:15:20;98957.97;;;10.34;94.80
54910;BME280;63189;51.240;9.964;2022-09-21T09:18:10;98956.66;;;10.62;95.28
54910;BME280;63189;51.240;9.964;2022-09-21T09:20:46;98957.53;;;10.64;93.30
54910;BME280;63189;51.240;9.964;2022-09-21T09:23:21;98957.59;;;10.60;93.72
54910;BME280;63189;51.240;9.964;2022-09-21T09:25:53;98959.50;;;10.49;91.83
54910;BME280;63189;51.240;9.964;2022-09-21T09:31:21;98961.38;;;10.37;92.98
54910;BME280;63189;51.240;9.964;2022-09-21T09:33:56;98960.47;;;10.40;93.07
54910;BME280;63189;51.240;9.964;2022-09-21T09:36:26;98957.88;;;10.38;91.85
54910;BME280;63189;51.240;9.964;2022-09-21T09:38:55;98954.41;;;10.39;90.98
54910;BME280;63189;51.240;9.964;2022-09-21T09:41:37;98958.56;;;10.51;91.34
54910;BME280;63189;51.240;9.964;2022-09-21T09:46:56;98958.44;;;10.60;91.89
54910;BME280;63189;51.240;9.964;2022-09-21T09:52:01;98950.56;;;10.65;90.44
54910;BME280;63189;51.240;9.964;2022-09-21T09:54:28;98953.03;;;10.76;91.09
54910;BME280;63189;51.240;9.964;2022-09-21T09:56:54;98949.28;;;10.92;90.47
54910;BME280;63189;51.240;9.964;2022-09-21T09:59:34;98951.78;;;10.98;88.99
54910;BME280;63189;51.240;9.964;2022-09-21T10:02:05;98956.69;;;11.18;88.80
54910;BME280;63189;51.240;9.964;2022-09-21T10:04:31;98951.22;;;11.32;87.90
54910;BME280;63189;51.240;9.964;2022-09-21T10:06:59;98943.81;;;11.55;89.38
54910;BME280;63189;51.240;9.964;2022-09-21T10:11:55;98950.91;;;11.96;88.63
54910;BME280;63189;51.240;9.964;2022-09-21T10:14:23;98950.63;;;12.10;87.39
54910;BME280;63189;51.240;9.964;2022-09-21T10:16:50;98934.72;;;12.21;86.42
54910;BME280;63189;51.240;9.964;2022-09-21T10:19:22;98932.53;;;12.39;86.96
54910;BME280;63189;51.240;9.964;2022-09-21T10:22:00;98936.56;;;12.56;85.79
54910;BME280;63189;51.240;9.964;2022-09-21T10:27:43;98928.72;;;12.93;82.12
54910;BME280;63189;51.240;9.964;2022-09-21T10:29:49;98929.72;;;13.23;84.38
54910;BME280;63189;51.240;9.964;2022-09-21T10:42:48;98923.63;;;14.17;79.52
54910;BME280;63189;51.240;9.964;2022-09-21T10:45:17;98915.31;;;14.32;79.79
54910;BME280;63189;51.240;9.964;2022-09-21T10:47:45;98920.22;;;14.43;79.00
54910;BME280;63189;51.240;9.964;2022-09-21T10:53:12;98924.84;;;14.64;74.75
54910;BME280;63189;51.240;9.964;2022-09-21T10:58:31;98919.09;;;14.80;74.15
54910;BME280;63189;51.240;9.964;2022-09-21T11:01:20;98917.16;;;14.86;71.26
54910;BME280;63189;51.240;9.964;2022-09-21T11:04:15;98919.22;;;15.03;72.73
54910;BME280;63189;51.240;9.964;2022-09-21T11:06:54;98916.31;;;15.12;71.72
54910;BME280;63189;51.240;9.964;2022-09-21T11:09:31;98925.69;;;15.19;72.99
54910;BME280;63189;51.240;9.964;2022-09-21T11:12:04;98912.22;;;15.28;73.31
54910;BME280;63189;51.240;9.964;2022-09-21T11:20:57;98920.31;;;15.74;69.62
54910;BME280;63189;51.240;9.964;2022-09-21T11:26:34;98913.69;;;15.64;68.46
54910;BME280;63189;51.240;9.964;2022-09-21T11:42:30;98904.56;;;15.22;62.59
54910;BME280;63189;51.240;9.964;2022-09-21T11:45:07;98900.31;;;15.18;63.94
54910;BME280;63189;51.240;9.964;2022-09-21T11:48:10;98896.44;;;15.04;62.57
54910;BME280;63189;51.240;9.964;2022-09-21T11:50:58;98890.66;;;14.94;63.48
54910;BME280;63189;51.240;9.964;2022-09-21T11:53:48;98896.19;;;14.85;62.71
54910;BME280;63189;51.240;9.964;2022-09-21T11:59:17;98883.66;;;14.66;61.86
54910;BME280;63189;51.240;9.964;2022-09-21T12:04:41;98894.78;;;14.75;64.95
54910;BME280;63189;51.240;9.964;2022-09-21T12:07:35;98891.81;;;14.57;59.71
54910;BME280;63189;51.240;9.964;2022-09-21T12:10:13;98881.59;;;14.48;63.18
54910;BME280;63189;51.240;9.964;2022-09-21T12:12:47;98884.00;;;14.56;62.92
54910;BME280;63189;51.240;9.964;2022-09-21T12:18:17;98876.97;;;14.56;62.57
54910;BME280;63189;51.240;9.964;2022-09-21T12:21:12;98877.03;;;14.55;62.57
54910;BME280;63189;51.240;9.964;2022-09-21T12:23:47;98884.97;;;14.53;62.65
54910;BME280;63189;51.240;9.964;2022-09-21T12:26:21;98877.09;;;14.53;63.55
54910;BME280;63189;51.240;9.964;2022-09-21T12:28:52;98871.38;;;14.67;64.01
54910;BME280;63189;51.240;9.964;2022-09-21T12:31:29;98870.25;;;14.76;62.15
54910;BME280;63189;51.240;9.964;2022-09-21T12:33:56;98869.06;;;14.84;62.88
54910;BME280;63189;51.240;9.964;2022-09-21T12:36:40;98876.00;;;14.87;61.17
54910;BME280;63189;51.240;9.964;2022-09-21T12:39:14;98861.59;;;14.98;62.59
54910;BME280;63189;51.240;9.964;2022-09-21T12:41:46;98864.81;;;15.07;61.61
54910;BME280;63189;51.240;9.964;2022-09-21T12:46:53;98852.84;;;15.24;61.87
54910;BME280;63189;51.240;9.964;2022-09-21T12:49:37;98852.91;;;15.21;60.04
54910;BME280;63189;51.240;9.964;2022-09-21T12:52:05;98858.81;;;15.03;59.25
54910;BME280;63189;51.240;9.964;2022-09-21T12:54:52;98846.31;;;15.10;57.89
54910;BME280;63189;51.240;9.964;2022-09-21T13:00:15;98849.78;;;15.37;59.97
54910;BME280;63189;51.240;9.964;2022-09-21T13:08:16;98847.66;;;15.46;55.18
54910;BME280;63189;51.240;9.964;2022-09-21T13:13:38;98833.28;;;15.56;54.29
54910;BME280;63189;51.240;9.964;2022-09-21T13:16:28;98834.66;;;15.43;51.79
54910;BME280;63189;51.240;9.964;2022-09-21T13:18:56;98836.50;;;15.40;54.63
54910;BME280;63189;51.240;9.964;2022-09-21T13:21:25;98820.66;;;15.43;55.25
54910;BME280;63189;51.240;9.964;2022-09-21T13:23:58;98832.03;;;15.43;53.71
54910;BME280;63189;51.240;9.964;2022-09-21T13:26:36;98825.91;;;15.43;51.88
54910;BME280;63189;51.240;9.964;2022-09-21T13:34:32;98827.97;;;15.58;51.96
54910;BME280;63189;51.240;9.964;2022-09-21T13:44:55;98818.78;;;15.70;52.89
54910;BME280;63189;51.240;9.964;2022-09-21T13:47:29;98813.53;;;15.70;49.59
54910;BME280;63189;51.240;9.964;2022-09-21T13:49:56;98809.78;;;15.77;51.32
54910;BME280;63189;51.240;9.964;2022-09-21T13:52:42;98802.63;;;15.80;51.98
54910;BME280;63189;51.240;9.964;2022-09-21T13:57:52;98810.16;;;15.90;53.37
54910;BME280;63189;51.240;9.964;2022-09-21T14:00:39;98801.97;;;15.97;53.22
54910;BME280;63189;51.240;9.964;2022-09-21T14:03:36;98790.53;;;15.98;53.09
54910;BME280;63189;51.240;9.964;2022-09-21T14:06:12;98798.94;;;16.08;56.03
54910;BME280;63189;51.240;9.964;2022-09-21T14:08:46;98799.66;;;16.11;55.96
54910;BME280;63189;51.240;9.964;2022-09-21T14:11:16;98802.56;;;16.04;56.26
54910;BME280;63189;51.240;9.964;2022-09-21T14:13:47;98792.31;;;15.98;54.59
54910;BME280;63189;51.240;9.964;2022-09-21T14:27:21;98792.53;;;15.92;57.02
54910;BME280;63189;51.240;9.964;2022-09-21T14:30:24;98792.84;;;15.84;56.39
54910;BME280;63189;51.240;9.964;2022-09-21T14:35:25;98790.16;;;15.62;56.53
54910;BME280;63189;51.240;9.964;2022-09-21T14:37:57;98786.97;;;15.52;56.75
54910;BME280;63189;51.240;9.964;2022-09-21T14:40:27;98794.13;;;15.49;57.48
54910;BME280;63189;51.240;9.964;2022-09-21T14:42:56;98784.72;;;15.43;56.77
54910;BME280;63189;51.240;9.964;2022-09-21T14:45:55;98789.34;;;15.37;56.96
54910;BME280;63189;51.240;9.964;2022-09-21T14:48:36;98796.63;;;15.28;56.75
54910;BME280;63189;51.240;9.964;2022-09-21T14:51:19;98787.22;;;15.23;56.03
54910;BME280;63189;51.240;9.964;2022-09-21T14:59:31;98783.59;;;15.00;55.51
54910;BME280;63189;51.240;9.964;2022-09-21T15:02:24;98783.09;;;14.91;54.74
54910;BME280;63189;51.240;9.964;2022-09-21T15:05:03;98776.38;;;14.82;55.01
54910;BME280;63189;51.240;9.964;2022-09-21T15:07:41;98770.59;;;14.72;56.28
54910;BME280;63189;51.240;9.964;2022-09-21T15:10:35;98770.03;;;14.63;56.03
54910;BME280;63189;51.240;9.964;2022-09-21T15:13:36;98776.47;;;14.54;56.26
54910;BME280;63189;51.240;9.964;2022-09-21T15:16:16;98780.91;;;14.52;57.12
54910;BME280;63189;51.240;9.964;2022-09-21T15:18:45;98770.72;;;14.41;57.94
54910;BME280;63189;51.240;9.964;2022-09-21T15:23:45;98773.47;;;14.37;57.64
54910;BME280;63189;51.240;9.964;2022-09-21T15:26:16;98780.72;;;14.30;56.30
54910;BME280;63189;51.240;9.964;2022-09-21T15:28:46;98775.81;;;14.20;56.88
54910;BME280;63189;51.240;9.964;2022-09-21T15:31:16;98778.34;;;14.23;57.85
54910;BME280;63189;51.240;9.964;2022-09-21T15:33:44;98772.28;;;14.21;57.41
54910;BME280;63189;51.240;9.964;2022-09-21T15:36:25;98770.69;;;14.15;57.30
54910;BME280;63189;51.240;9.964;2022-09-21T15:38:52;98772.47;;;14.14;57.74
54910;BME280;63189;51.240;9.964;2022-09-21T15:41:42;98776.66;;;14.20;58.58
54910;BME280;63189;51.240;9.964;2022-09-21T15:44:17;98775.72;;;14.23;58.94
54910;BME280;63189;51.240;9.964;2022-09-21T15:46:47;98768.75;;;14.22;57.63
54910;BME280;63189;51.240;9.964;2022-09-21T15:49:16;98767.84;;;14.23;58.45
54910;BME280;63189;51.240;9.964;2022-09-21T15:51:49;98762.53;;;14.24;57.58
54910;BME280;63189;51.240;9.964;2022-09-21T15:54:36;98764.19;;;14.28;57.56
54910;BME280;63189;51.240;9.964;2022-09-21T15:57:32;98769.44;;;14.27;57.90
54910;BME280;63189;51.240;9.964;2022-09-21T16:00:00;98765.09;;;14.26;57.64
54910;BME280;63189;51.240;9.964;2022-09-21T16:02:32;98770.16;;;14.32;58.21
54910;BME280;63189;51.240;9.964;2022-09-21T16:04:58;98772.84;;;14.30;59.28
54910;BME280;63189;51.240;9.964;2022-09-21T16:09:58;98770.22;;;14.30;58.98
54910;BME280;63189;51.240;9.964;2022-09-21T16:14:51;98764.31;;;14.24;59.00